Time;durP1;ratioP1;P1;durP2;ratioP2;P2;SDS_P1;SDS_P2;PMS_P1;PMS_P2;Temp;Humidity;BMP_temperature;BMP_pressure;BME280_temperature;BME280_humidity;BME280_pressure;Samples;Min_cycle;Max_cycle;Signal;HPM_P1;HPM_P2
2024/02/24 00:00:52;;;;;;;221.03;62.10;;;;;;;;;;4993981;28;20436;-45
2024/02/24 00:03:18;;;;;;;221.87;63.03;;;;;;;;;;4997690;28;20450;-47
2024/02/24 00:05:44;;;;;;;219.77;61.27;;;;;;;;;;4998710;28;20528;-46
2024/02/24 00:08:10;;;;;;;222.87;62.90;;;;;;;;;;4997617;28;20810;-45
2024/02/24 00:10:36;;;;;;;223.20;62.60;;;;;;;;;;4996617;28;20488;-46
2024/02/24 00:13:03;;;;;;;219.68;60.15;;;;;;;;;;4994187;28;20408;-46
2024/02/24 00:15:29;;;;;;;221.30;61.63;;;;;;;;;;4993608;28;20174;-45
2024/02/24 00:17:55;;;;;;;223.33;64.10;;;;;;;;;;4996745;28;20548;-46
2024/02/24 00:20:21;;;;;;;218.47;59.37;;;;;;;;;;4994383;28;20426;-45
2024/02/24 00:22:47;;;;;;;222.57;62.33;;;;;;;;;;5000085;28;20420;-48
2024/02/24 00:25:13;;;;;;;222.90;62.27;;;;;;;;;;4993910;28;20177;-45
2024/02/24 00:27:39;;;;;;;221.13;61.47;;;;;;;;;;4993916;28;20726;-46
2024/02/24 00:30:05;;;;;;;219.60;59.38;;;;;;;;;;4994451;28;20424;-46
2024/02/24 00:32:31;;;;;;;223.35;61.78;;;;;;;;;;4994278;28;20485;-45
2024/02/24 00:34:57;;;;;;;220.83;60.70;;;;;;;;;;4995114;28;20361;-45
2024/02/24 00:37:23;;;;;;;219.47;60.20;;;;;;;;;;4994332;28;20414;-45
2024/02/24 00:39:49;;;;;;;222.47;61.53;;;;;;;;;;4993926;28;20503;-46
2024/02/24 00:42:15;;;;;;;219.37;60.23;;;;;;;;;;4994355;28;20412;-45
2024/02/24 00:44:41;;;;;;;219.57;59.37;;;;;;;;;;4994317;28;20860;-45
2024/02/24 00:47:07;;;;;;;219.63;60.30;;;;;;;;;;4994068;28;20547;-45
2024/02/24 00:49:33;;;;;;;220.30;59.83;;;;;;;;;;4994256;28;20174;-45
2024/02/24 00:51:59;;;;;;;222.27;61.10;;;;;;;;;;4994052;28;20320;-45
2024/02/24 00:54:25;;;;;;;220.53;61.27;;;;;;;;;;4993829;28;20405;-45
2024/02/24 00:56:51;;;;;;;218.87;58.97;;;;;;;;;;4994058;28;20412;-45
2024/02/24 00:59:17;;;;;;;219.00;60.60;;;;;;;;;;4994161;28;20834;-45
2024/02/24 01:01:43;;;;;;;219.53;59.30;;;;;;;;;;4994459;28;20804;-46
2024/02/24 01:04:09;;;;;;;219.67;59.30;;;;;;;;;;4994590;28;20779;-45
2024/02/24 01:06:35;;;;;;;222.13;62.00;;;;;;;;;;4994041;28;20815;-46
2024/02/24 01:09:00;;;;;;;219.77;59.47;;;;;;;;;;4994570;28;20173;-46
2024/02/24 01:11:26;;;;;;;218.60;59.20;;;;;;;;;;4994402;28;20433;-45
2024/02/24 01:13:53;;;;;;;220.97;59.67;;;;;;;;;;4997833;28;20458;-45
2024/02/24 01:16:19;;;;;;;219.68;59.95;;;;;;;;;;4997747;28;20416;-46
2024/02/24 01:18:45;;;;;;;219.37;59.53;;;;;;;;;;4998256;28;20195;-46
2024/02/24 01:21:11;;;;;;;219.20;58.80;;;;;;;;;;4997798;28;20494;-45
2024/02/24 01:23:39;;;;;;;217.27;57.67;;;;;;;;;;4998089;28;20778;-45
2024/02/24 01:26:05;;;;;;;219.70;59.03;;;;;;;;;;4998055;28;20286;-45
2024/02/24 01:28:31;;;;;;;218.47;58.43;;;;;;;;;;4997871;28;20239;-45
2024/02/24 01:30:57;;;;;;;217.33;57.60;;;;;;;;;;4998024;28;20439;-45
2024/02/24 01:33:23;;;;;;;218.87;59.13;;;;;;;;;;4998111;28;20462;-45
2024/02/24 01:35:48;;;;;;;217.10;57.10;;;;;;;;;;4997769;28;20407;-45
2024/02/24 01:38:14;;;;;;;217.90;58.70;;;;;;;;;;4997861;28;20291;-45
2024/02/24 01:40:40;;;;;;;219.50;58.70;;;;;;;;;;4997398;28;20471;-45
2024/02/24 01:43:23;;;;;;;217.30;57.33;;;;;;;;;;4997341;28;20415;-45
2024/02/24 01:45:49;;;;;;;220.07;59.45;;;;;;;;;;4997312;28;20498;-45
2024/02/24 01:48:15;;;;;;;219.57;59.10;;;;;;;;;;4997160;28;20172;-45
2024/02/24 01:50:41;;;;;;;218.98;59.20;;;;;;;;;;4997510;28;20795;-45
2024/02/24 01:53:07;;;;;;;218.57;59.53;;;;;;;;;;4997773;28;20177;-45
2024/02/24 01:55:33;;;;;;;221.07;60.08;;;;;;;;;;4997182;28;20174;-45
2024/02/24 01:58:01;;;;;;;219.50;59.63;;;;;;;;;;4996736;28;20192;-46
2024/02/24 02:00:27;;;;;;;219.75;60.25;;;;;;;;;;4997308;28;20203;-47
2024/02/24 02:02:54;;;;;;;222.93;61.22;;;;;;;;;;4996415;28;20209;-45
2024/02/24 02:05:22;;;;;;;222.60;62.38;;;;;;;;;;4996513;28;20200;-45
2024/02/24 02:07:49;;;;;;;218.77;58.05;;;;;;;;;;4996773;28;20424;-47
2024/02/24 02:10:15;;;;;;;221.45;60.70;;;;;;;;;;4997002;28;20189;-45
2024/02/24 02:12:42;;;;;;;217.93;58.93;;;;;;;;;;4996649;28;20169;-45
2024/02/24 02:15:08;;;;;;;226.18;64.47;;;;;;;;;;4994634;28;20428;-45
2024/02/24 02:17:35;;;;;;;220.65;60.10;;;;;;;;;;4996417;28;20519;-47
2024/02/24 02:20:01;;;;;;;219.85;60.38;;;;;;;;;;4997034;28;20197;-45
2024/02/24 02:22:29;;;;;;;219.27;60.67;;;;;;;;;;4997571;28;20261;-46
2024/02/24 02:24:55;;;;;;;220.63;60.97;;;;;;;;;;4995084;28;20702;-44
2024/02/24 02:27:22;;;;;;;220.88;60.50;;;;;;;;;;5001069;28;20205;-45
2024/02/24 02:29:48;;;;;;;222.13;61.75;;;;;;;;;;4996930;28;20263;-45
2024/02/24 02:32:14;;;;;;;216.85;58.53;;;;;;;;;;4996861;28;20173;-45
2024/02/24 02:34:40;;;;;;;222.67;62.73;;;;;;;;;;4996986;28;20768;-45
2024/02/24 02:37:06;;;;;;;217.17;58.67;;;;;;;;;;4996365;28;20415;-45
2024/02/24 02:39:32;;;;;;;218.98;60.25;;;;;;;;;;4995797;28;20419;-45
2024/02/24 02:41:58;;;;;;;218.60;59.05;;;;;;;;;;4999873;28;20292;-45
2024/02/24 02:44:24;;;;;;;218.88;60.38;;;;;;;;;;4996480;28;20646;-45
2024/02/24 02:46:52;;;;;;;219.50;59.63;;;;;;;;;;5002932;28;20204;-45
2024/02/24 02:49:18;;;;;;;222.10;61.30;;;;;;;;;;4996112;28;20747;-45
2024/02/24 02:51:45;;;;;;;221.68;61.00;;;;;;;;;;4996195;28;20223;-45
2024/02/24 02:54:11;;;;;;;218.75;59.80;;;;;;;;;;4997491;28;20173;-45
2024/02/24 02:56:38;;;;;;;220.17;59.77;;;;;;;;;;4997865;28;20184;-45
2024/02/24 02:59:04;;;;;;;220.10;60.83;;;;;;;;;;5001532;28;20435;-45
2024/02/24 03:01:30;;;;;;;218.87;59.10;;;;;;;;;;5002917;28;20700;-45
2024/02/24 03:03:56;;;;;;;217.47;58.90;;;;;;;;;;4996562;28;20850;-45
2024/02/24 03:06:22;;;;;;;219.27;59.10;;;;;;;;;;4995726;28;20522;-45
2024/02/24 03:08:48;;;;;;;218.68;58.67;;;;;;;;;;4999391;28;20404;-46
2024/02/24 03:11:15;;;;;;;219.63;59.35;;;;;;;;;;4999384;28;20194;-45
2024/02/24 03:13:41;;;;;;;221.30;60.72;;;;;;;;;;4997389;28;20166;-44
2024/02/24 03:16:07;;;;;;;219.20;60.50;;;;;;;;;;4995881;28;20184;-44
2024/02/24 03:18:33;;;;;;;218.63;59.45;;;;;;;;;;4995622;28;20439;-45
2024/02/24 03:21:01;;;;;;;217.90;59.73;;;;;;;;;;4998034;28;20551;-45
2024/02/24 03:23:27;;;;;;;218.50;58.95;;;;;;;;;;4995505;28;20408;-45
2024/02/24 03:25:53;;;;;;;217.67;59.17;;;;;;;;;;4997815;28;20212;-45
2024/02/24 03:28:22;;;;;;;219.57;61.05;;;;;;;;;;4998004;28;20411;-45
2024/02/24 03:30:48;;;;;;;219.38;59.25;;;;;;;;;;4993876;28;20835;-45
2024/02/24 03:33:15;;;;;;;218.90;60.00;;;;;;;;;;4992892;28;20183;-45
2024/02/24 03:35:41;;;;;;;220.38;60.88;;;;;;;;;;4990391;28;20404;-45
2024/02/24 03:38:08;;;;;;;218.00;58.75;;;;;;;;;;4996268;28;20224;-45
2024/02/24 03:40:36;;;;;;;219.48;60.30;;;;;;;;;;4997642;28;20216;-45
2024/02/24 03:43:02;;;;;;;220.23;60.25;;;;;;;;;;4985487;28;20181;-44
2024/02/24 03:45:28;;;;;;;220.00;59.80;;;;;;;;;;4992120;28;20223;-45
2024/02/24 03:47:54;;;;;;;219.77;60.92;;;;;;;;;;4992381;28;20276;-46
2024/02/24 03:50:21;;;;;;;219.40;61.40;;;;;;;;;;4994591;28;20204;-45
2024/02/24 03:52:48;;;;;;;220.32;60.60;;;;;;;;;;4993161;28;20491;-44
2024/02/24 03:55:14;;;;;;;225.25;65.63;;;;;;;;;;4993604;28;20161;-45
2024/02/24 03:57:40;;;;;;;219.30;59.77;;;;;;;;;;4998831;28;20207;-45
2024/02/24 04:00:06;;;;;;;218.35;59.78;;;;;;;;;;4992423;28;20432;-45
2024/02/24 04:02:32;;;;;;;219.82;60.25;;;;;;;;;;4994053;28;20665;-45
2024/02/24 04:05:00;;;;;;;220.27;62.07;;;;;;;;;;4991977;28;20178;-45
2024/02/24 04:07:28;;;;;;;219.50;60.38;;;;;;;;;;4991823;28;20472;-45
2024/02/24 04:09:54;;;;;;;221.52;62.38;;;;;;;;;;4993659;28;20180;-44
2024/02/24 04:12:21;;;;;;;216.73;59.87;;;;;;;;;;4997029;28;20174;-44
2024/02/24 04:14:47;;;;;;;221.27;62.28;;;;;;;;;;4991686;28;20768;-45
2024/02/24 04:17:13;;;;;;;218.37;59.80;;;;;;;;;;4992636;28;20273;-44
2024/02/24 04:19:40;;;;;;;220.53;61.50;;;;;;;;;;4991587;28;20404;-44
2024/02/24 04:22:06;;;;;;;217.55;60.10;;;;;;;;;;4991821;28;20436;-44
2024/02/24 04:24:32;;;;;;;220.03;60.63;;;;;;;;;;4991092;28;20599;-44
2024/02/24 04:26:58;;;;;;;220.23;62.17;;;;;;;;;;4991661;28;20464;-44
2024/02/24 04:29:24;;;;;;;220.03;61.00;;;;;;;;;;4991967;28;20400;-44
2024/02/24 04:31:51;;;;;;;216.83;59.43;;;;;;;;;;4991647;28;20432;-45
2024/02/24 04:34:17;;;;;;;220.40;60.97;;;;;;;;;;4991668;28;20435;-45
2024/02/24 04:36:43;;;;;;;220.40;62.10;;;;;;;;;;4991208;28;20232;-44
2024/02/24 04:39:09;;;;;;;219.23;61.22;;;;;;;;;;4992013;28;20440;-44
2024/02/24 04:41:39;;;;;;;219.02;59.90;;;;;;;;;;4991353;28;20220;-44
2024/02/24 04:44:05;;;;;;;217.50;58.72;;;;;;;;;;4991782;28;20177;-43
2024/02/24 04:46:33;;;;;;;219.85;61.42;;;;;;;;;;4990699;28;20214;-45
2024/02/24 04:49:00;;;;;;;217.68;59.33;;;;;;;;;;4992158;28;20168;-44
2024/02/24 04:51:27;;;;;;;220.10;60.75;;;;;;;;;;4991255;28;20216;-44
2024/02/24 04:53:53;;;;;;;219.52;60.97;;;;;;;;;;4991396;28;20256;-43
2024/02/24 04:56:20;;;;;;;220.73;61.80;;;;;;;;;;4991412;28;20204;-44
2024/02/24 04:58:46;;;;;;;221.82;61.75;;;;;;;;;;4991510;28;20181;-44
2024/02/24 05:01:12;;;;;;;218.53;59.87;;;;;;;;;;4991525;28;20197;-44
2024/02/24 05:03:38;;;;;;;220.83;61.10;;;;;;;;;;4991324;28;20792;-45
2024/02/24 05:06:05;;;;;;;222.40;62.93;;;;;;;;;;4990899;28;20457;-45
2024/02/24 05:08:33;;;;;;;221.43;60.95;;;;;;;;;;4991383;28;20492;-45
2024/02/24 05:11:00;;;;;;;221.55;63.33;;;;;;;;;;4991467;28;20196;-45
2024/02/24 05:13:26;;;;;;;221.25;61.90;;;;;;;;;;4991286;28;20183;-45
2024/02/24 05:15:52;;;;;;;221.67;62.57;;;;;;;;;;4991013;28;20184;-44
2024/02/24 05:18:21;;;;;;;221.00;63.37;;;;;;;;;;4991707;28;20416;-44
2024/02/24 05:20:47;;;;;;;220.45;61.40;;;;;;;;;;4991472;28;20498;-45
2024/02/24 05:23:15;;;;;;;221.07;61.77;;;;;;;;;;4991485;28;20228;-45
2024/02/24 05:25:41;;;;;;;219.70;61.90;;;;;;;;;;4990816;28;20460;-45
2024/02/24 05:28:07;;;;;;;221.57;62.50;;;;;;;;;;4991179;28;20599;-46
2024/02/24 05:30:33;;;;;;;221.27;62.60;;;;;;;;;;4991226;28;20629;-44
2024/02/24 05:32:59;;;;;;;219.43;61.77;;;;;;;;;;4991348;28;20496;-44
2024/02/24 05:35:25;;;;;;;221.03;61.37;;;;;;;;;;4990735;28;20442;-45
2024/02/24 05:37:52;;;;;;;222.75;61.75;;;;;;;;;;4991150;28;20404;-44
2024/02/24 05:40:19;;;;;;;222.30;62.20;;;;;;;;;;4990895;28;20775;-44
2024/02/24 05:42:45;;;;;;;221.38;61.63;;;;;;;;;;4991104;28;20851;-44
2024/02/24 05:45:11;;;;;;;227.30;66.35;;;;;;;;;;4990770;28;20261;-44
2024/02/24 05:47:37;;;;;;;224.30;63.73;;;;;;;;;;4990832;28;20173;-44
2024/02/24 05:50:03;;;;;;;220.97;61.70;;;;;;;;;;4990916;28;20531;-45
2024/02/24 05:52:29;;;;;;;220.85;62.08;;;;;;;;;;4991218;28;20424;-45
2024/02/24 05:54:55;;;;;;;220.57;61.17;;;;;;;;;;4990994;28;20188;-44
2024/02/24 05:57:22;;;;;;;224.23;64.00;;;;;;;;;;4990956;28;20934;-45
2024/02/24 05:59:48;;;;;;;222.55;61.72;;;;;;;;;;4994135;28;20652;-44
2024/02/24 06:02:14;;;;;;;224.97;63.77;;;;;;;;;;4994491;28;20217;-44
2024/02/24 06:04:40;;;;;;;223.57;63.13;;;;;;;;;;4994198;28;20426;-45
2024/02/24 06:07:06;;;;;;;222.27;62.60;;;;;;;;;;4993611;28;20485;-44
2024/02/24 06:09:32;;;;;;;223.95;63.70;;;;;;;;;;4993456;28;20441;-45
2024/02/24 06:11:58;;;;;;;224.70;64.85;;;;;;;;;;4992314;28;20457;-44
2024/02/24 06:14:24;;;;;;;220.07;60.97;;;;;;;;;;4993855;28;20659;-44
2024/02/24 06:16:50;;;;;;;223.57;63.80;;;;;;;;;;4993262;28;21454;-44
2024/02/24 06:19:16;;;;;;;221.73;63.10;;;;;;;;;;4993590;28;20409;-44
2024/02/24 06:21:42;;;;;;;233.63;70.60;;;;;;;;;;4992175;28;20443;-46
2024/02/24 06:24:08;;;;;;;222.05;63.80;;;;;;;;;;4990650;28;20244;-44
2024/02/24 06:26:34;;;;;;;225.00;65.90;;;;;;;;;;4992796;28;20344;-45
2024/02/24 06:29:00;;;;;;;220.38;61.60;;;;;;;;;;4991978;28;20404;-44
2024/02/24 06:31:26;;;;;;;221.37;62.27;;;;;;;;;;4993201;28;20733;-45
2024/02/24 06:33:52;;;;;;;224.98;65.88;;;;;;;;;;4993312;28;20422;-45
2024/02/24 06:36:18;;;;;;;219.57;60.80;;;;;;;;;;4993502;28;20193;-44
2024/02/24 06:38:44;;;;;;;224.05;64.95;;;;;;;;;;4993086;28;20431;-44
2024/02/24 06:41:10;;;;;;;221.73;61.83;;;;;;;;;;4993322;28;20216;-44
2024/02/24 06:43:37;;;;;;;226.93;65.63;;;;;;;;;;4993032;28;20412;-45
2024/02/24 06:46:03;;;;;;;224.93;63.67;;;;;;;;;;4992174;28;20255;-45
2024/02/24 06:48:29;;;;;;;222.27;61.10;;;;;;;;;;4990375;28;20185;-44
2024/02/24 06:50:54;;;;;;;220.63;60.65;;;;;;;;;;4997457;28;20524;-45
2024/02/24 06:53:21;;;;;;;224.57;63.53;;;;;;;;;;4995912;28;20180;-46
2024/02/24 06:55:47;;;;;;;223.55;64.13;;;;;;;;;;4992210;28;20412;-46
2024/02/24 06:58:12;;;;;;;224.73;64.07;;;;;;;;;;4995322;28;20205;-44
2024/02/24 07:00:38;;;;;;;224.67;65.37;;;;;;;;;;4993904;28;20811;-45
2024/02/24 07:03:06;;;;;;;226.55;64.35;;;;;;;;;;4995625;28;20791;-44
2024/02/24 07:05:32;;;;;;;223.98;62.90;;;;;;;;;;4992793;28;20205;-45
2024/02/24 07:07:58;;;;;;;221.05;60.20;;;;;;;;;;4998596;28;20224;-44
2024/02/24 07:10:23;;;;;;;223.53;63.30;;;;;;;;;;4992393;28;20197;-45
2024/02/24 07:12:49;;;;;;;221.00;60.23;;;;;;;;;;4993624;28;20446;-45
2024/02/24 07:15:15;;;;;;;228.07;65.20;;;;;;;;;;4992877;28;20423;-44
2024/02/24 07:17:43;;;;;;;224.75;64.32;;;;;;;;;;4994539;28;20456;-45
2024/02/24 07:20:09;;;;;;;223.43;62.08;;;;;;;;;;4996916;28;20616;-46
2024/02/24 07:22:35;;;;;;;222.60;61.00;;;;;;;;;;4998428;28;20231;-45
2024/02/24 07:25:01;;;;;;;229.40;68.38;;;;;;;;;;4999921;28;20709;-44
2024/02/24 07:27:28;;;;;;;222.67;62.00;;;;;;;;;;4992541;28;20204;-44
2024/02/24 07:29:54;;;;;;;223.43;62.55;;;;;;;;;;4992281;28;20410;-45
2024/02/24 07:32:22;;;;;;;224.60;63.88;;;;;;;;;;4995523;28;20246;-46
2024/02/24 07:34:48;;;;;;;223.82;64.38;;;;;;;;;;4993651;28;20173;-44
2024/02/24 07:37:13;;;;;;;222.67;62.20;;;;;;;;;;4997964;28;20179;-44
2024/02/24 07:39:43;;;;;;;224.43;64.97;;;;;;;;;;4999473;28;21012;-45
2024/02/24 07:42:09;;;;;;;224.00;62.95;;;;;;;;;;4992931;28;20978;-44
2024/02/24 07:44:35;;;;;;;224.37;62.93;;;;;;;;;;4992228;28;20181;-44
2024/02/24 07:47:01;;;;;;;222.07;62.57;;;;;;;;;;4991968;28;21016;-44
2024/02/24 07:49:27;;;;;;;223.45;64.53;;;;;;;;;;4992524;28;20493;-44
2024/02/24 07:51:53;;;;;;;221.50;61.93;;;;;;;;;;4992186;28;20278;-44
2024/02/24 07:54:19;;;;;;;221.40;63.97;;;;;;;;;;4992478;28;20408;-45
2024/02/24 07:56:45;;;;;;;227.33;67.07;;;;;;;;;;4991840;28;20234;-44
2024/02/24 07:59:11;;;;;;;220.80;62.45;;;;;;;;;;4992210;28;20492;-44
2024/02/24 08:01:37;;;;;;;226.13;64.73;;;;;;;;;;4992456;28;20237;-45
2024/02/24 08:04:04;;;;;;;222.50;63.03;;;;;;;;;;4992295;28;20412;-44
2024/02/24 08:06:31;;;;;;;223.13;63.35;;;;;;;;;;4991786;28;20973;-47
2024/02/24 08:08:57;;;;;;;225.52;64.63;;;;;;;;;;4992384;28;20176;-44
2024/02/24 08:11:24;;;;;;;225.27;64.27;;;;;;;;;;4992026;28;20199;-45
2024/02/24 08:13:50;;;;;;;224.82;63.72;;;;;;;;;;4991938;28;20478;-45
2024/02/24 08:16:22;;;;;;;224.30;62.30;;;;;;;;;;4991762;28;20261;-45
2024/02/24 08:18:49;;;;;;;227.82;66.35;;;;;;;;;;4991880;28;20778;-45
2024/02/24 08:21:15;;;;;;;224.25;63.95;;;;;;;;;;4991329;28;20191;-45
2024/02/24 08:23:41;;;;;;;226.33;65.80;;;;;;;;;;4991608;28;20189;-45
2024/02/24 08:26:07;;;;;;;228.05;65.53;;;;;;;;;;4991462;28;20460;-46
2024/02/24 08:28:33;;;;;;;225.57;65.10;;;;;;;;;;4991714;28;20663;-45
2024/02/24 08:31:00;;;;;;;225.52;64.38;;;;;;;;;;4991828;28;20952;-45
2024/02/24 08:33:27;;;;;;;226.52;64.35;;;;;;;;;;4991841;28;20197;-45
2024/02/24 08:35:53;;;;;;;225.60;63.97;;;;;;;;;;4991409;28;20189;-46
2024/02/24 08:38:19;;;;;;;226.40;65.38;;;;;;;;;;4991661;28;20222;-45
2024/02/24 08:40:45;;;;;;;230.10;67.85;;;;;;;;;;4989367;28;20243;-46
2024/02/24 08:43:12;;;;;;;227.18;66.10;;;;;;;;;;4988781;28;20208;-45
2024/02/24 08:45:38;;;;;;;226.35;66.28;;;;;;;;;;4991119;28;20231;-45
2024/02/24 08:48:04;;;;;;;230.50;68.55;;;;;;;;;;4991559;28;20255;-45
2024/02/24 08:50:30;;;;;;;226.45;64.40;;;;;;;;;;4991562;28;20573;-45
2024/02/24 08:52:56;;;;;;;224.40;63.72;;;;;;;;;;4991738;28;20171;-46
2024/02/24 08:55:22;;;;;;;227.38;67.22;;;;;;;;;;4991034;28;20170;-46
2024/02/24 08:57:48;;;;;;;228.40;65.90;;;;;;;;;;4991091;28;20255;-46
2024/02/24 09:00:14;;;;;;;223.55;62.90;;;;;;;;;;4990340;28;20495;-45
2024/02/24 09:02:40;;;;;;;225.65;64.35;;;;;;;;;;4990469;28;20188;-46
2024/02/24 09:05:06;;;;;;;226.33;65.00;;;;;;;;;;4991039;28;20178;-45
2024/02/24 09:07:32;;;;;;;223.98;63.00;;;;;;;;;;4991104;28;20976;-46
2024/02/24 09:09:58;;;;;;;224.67;63.97;;;;;;;;;;4990530;28;20180;-46
2024/02/24 09:12:27;;;;;;;222.95;61.10;;;;;;;;;;4987811;28;20440;-46
2024/02/24 09:14:54;;;;;;;222.35;61.88;;;;;;;;;;4990887;28;20181;-44
2024/02/24 09:17:20;;;;;;;222.73;61.70;;;;;;;;;;4991384;28;20185;-45
2024/02/24 09:19:46;;;;;;;236.43;72.53;;;;;;;;;;4989856;28;20558;-46
2024/02/24 09:22:12;;;;;;;221.20;59.67;;;;;;;;;;4989866;28;20757;-46
2024/02/24 09:24:39;;;;;;;222.77;60.70;;;;;;;;;;4990781;28;20429;-46
2024/02/24 09:27:05;;;;;;;221.43;60.08;;;;;;;;;;4990775;28;20292;-45
2024/02/24 09:29:31;;;;;;;222.18;60.10;;;;;;;;;;4990943;28;20280;-45
2024/02/24 09:31:57;;;;;;;222.07;61.00;;;;;;;;;;4991046;28;20199;-45
2024/02/24 09:34:25;;;;;;;222.30;61.27;;;;;;;;;;4993925;28;20178;-46
2024/02/24 09:36:50;;;;;;;226.70;64.38;;;;;;;;;;4993881;28;20483;-45
2024/02/24 09:39:16;;;;;;;223.00;61.63;;;;;;;;;;4993643;28;20640;-46
2024/02/24 09:41:42;;;;;;;222.30;61.58;;;;;;;;;;4994161;28;20874;-45
2024/02/24 09:44:10;;;;;;;222.90;62.43;;;;;;;;;;4994798;28;20187;-46
2024/02/24 09:46:37;;;;;;;223.60;61.13;;;;;;;;;;4994414;28;20465;-46
2024/02/24 09:49:03;;;;;;;222.27;61.10;;;;;;;;;;4987575;28;20180;-46
2024/02/24 09:51:29;;;;;;;222.25;62.08;;;;;;;;;;4994384;28;20207;-45
2024/02/24 09:53:59;;;;;;;222.45;60.97;;;;;;;;;;4994546;28;20254;-46
2024/02/24 09:56:27;;;;;;;220.82;58.35;;;;;;;;;;4994315;28;20653;-45
2024/02/24 09:58:53;;;;;;;219.90;57.90;;;;;;;;;;4994933;28;20187;-45
2024/02/24 10:01:20;;;;;;;220.68;58.45;;;;;;;;;;4994412;28;20280;-45
2024/02/24 10:03:47;;;;;;;220.13;58.25;;;;;;;;;;4994384;28;20468;-45
2024/02/24 10:06:13;;;;;;;219.07;57.17;;;;;;;;;;4994066;28;20189;-45
2024/02/24 10:08:40;;;;;;;219.27;57.03;;;;;;;;;;4994222;28;20653;-45
2024/02/24 10:11:06;;;;;;;218.90;56.73;;;;;;;;;;4994306;28;20288;-45
2024/02/24 10:13:32;;;;;;;222.57;60.63;;;;;;;;;;4994169;28;20828;-46
2024/02/24 10:16:03;;;;;;;222.32;60.30;;;;;;;;;;4994798;28;20447;-45
2024/02/24 10:18:31;;;;;;;217.93;56.33;;;;;;;;;;4994101;28;20173;-45
2024/02/24 10:20:57;;;;;;;219.95;58.38;;;;;;;;;;4994091;28;20197;-46
2024/02/24 10:23:24;;;;;;;218.43;56.87;;;;;;;;;;4994412;28;20173;-46
2024/02/24 10:25:57;;;;;;;220.02;58.50;;;;;;;;;;4993735;28;21608;-45
2024/02/24 10:28:25;;;;;;;218.43;56.58;;;;;;;;;;4994064;28;20196;-45
2024/02/24 10:30:52;;;;;;;219.18;57.70;;;;;;;;;;4993860;28;20763;-46
2024/02/24 10:33:18;;;;;;;220.52;58.72;;;;;;;;;;4993839;28;20191;-45
2024/02/24 10:35:44;;;;;;;219.80;58.40;;;;;;;;;;4993604;28;20224;-46
2024/02/24 10:38:12;;;;;;;217.60;57.28;;;;;;;;;;4993818;28;20414;-44
2024/02/24 10:40:38;;;;;;;218.27;57.25;;;;;;;;;;4993503;28;20243;-45
2024/02/24 10:43:05;;;;;;;217.97;57.90;;;;;;;;;;4993705;28;20173;-46
2024/02/24 10:45:32;;;;;;;218.55;59.47;;;;;;;;;;4992192;28;20417;-46
2024/02/24 10:47:59;;;;;;;220.98;59.28;;;;;;;;;;4993509;28;20189;-46
2024/02/24 10:50:24;;;;;;;219.52;58.67;;;;;;;;;;4993698;28;20202;-46
2024/02/24 10:52:51;;;;;;;219.20;59.97;;;;;;;;;;4992545;28;20188;-45
2024/02/24 10:55:22;;;;;;;218.77;59.30;;;;;;;;;;4993362;28;20416;-46
2024/02/24 10:57:49;;;;;;;219.70;58.83;;;;;;;;;;4993290;28;20180;-45
2024/02/24 11:00:24;;;;;;;221.20;60.30;;;;;;;;;;4993073;28;20208;-46
2024/02/24 11:02:50;;;;;;;217.35;57.40;;;;;;;;;;4992631;28;20179;-45
2024/02/24 11:05:17;;;;;;;221.40;61.05;;;;;;;;;;4993013;28;20177;-46
2024/02/24 11:07:43;;;;;;;219.40;58.35;;;;;;;;;;4992298;28;20243;-45
2024/02/24 11:10:18;;;;;;;220.50;59.67;;;;;;;;;;4993039;28;20205;-46
2024/02/24 11:12:44;;;;;;;222.55;60.35;;;;;;;;;;4991896;28;20406;-46
2024/02/24 11:15:21;;;;;;;224.47;62.93;;;;;;;;;;4993062;28;20230;-46
2024/02/24 11:17:51;;;;;;;222.43;62.80;;;;;;;;;;4992983;28;20407;-46
2024/02/24 11:20:37;;;;;;;222.77;62.15;;;;;;;;;;4992975;28;20200;-46
2024/02/24 11:23:42;;;;;;;224.70;63.75;;;;;;;;;;4992823;28;20179;-46
2024/02/24 11:26:21;;;;;;;222.10;61.10;;;;;;;;;;4951254;29;20287;-46
2024/02/24 11:28:49;;;;;;;225.88;63.15;;;;;;;;;;4989248;28;20223;-46
2024/02/24 11:31:18;;;;;;;231.68;69.47;;;;;;;;;;4992714;28;20192;-46
2024/02/24 11:33:44;;;;;;;235.50;75.30;;;;;;;;;;4992452;28;20653;-46
2024/02/24 11:36:11;;;;;;;236.27;75.68;;;;;;;;;;4992317;28;20169;-47
2024/02/24 11:38:37;;;;;;;242.55;81.57;;;;;;;;;;4992123;28;20558;-46
2024/02/24 11:41:04;;;;;;;239.70;78.60;;;;;;;;;;4992453;28;20220;-46
2024/02/24 11:43:30;;;;;;;238.05;76.13;;;;;;;;;;4992514;28;20416;-46
2024/02/24 11:45:56;;;;;;;241.68;80.82;;;;;;;;;;4992255;28;20700;-46
2024/02/24 11:48:24;;;;;;;241.73;80.97;;;;;;;;;;4983038;28;20236;-46
2024/02/24 11:50:54;;;;;;;242.27;79.70;;;;;;;;;;4992160;28;20432;-46
2024/02/24 11:53:20;;;;;;;240.43;79.07;;;;;;;;;;4992359;28;20187;-48
2024/02/24 11:55:46;;;;;;;241.20;80.15;;;;;;;;;;4991863;28;20181;-47
2024/02/24 11:58:17;;;;;;;239.77;78.55;;;;;;;;;;4992175;28;20203;-47
2024/02/24 12:00:43;;;;;;;243.20;80.45;;;;;;;;;;4992208;28;20251;-46
2024/02/24 12:03:15;;;;;;;240.40;77.40;;;;;;;;;;4992536;28;20613;-46
2024/02/24 12:05:41;;;;;;;240.75;77.07;;;;;;;;;;4991844;28;20412;-46
2024/02/24 12:08:18;;;;;;;238.23;78.70;;;;;;;;;;4991820;28;20246;-46
2024/02/24 12:10:44;;;;;;;240.10;79.15;;;;;;;;;;4992013;28;20231;-46
2024/02/24 12:13:30;;;;;;;238.07;75.75;;;;;;;;;;4991812;28;20171;-46
2024/02/24 12:15:57;;;;;;;236.38;75.40;;;;;;;;;;4990651;28;20173;-46
2024/02/24 12:18:24;;;;;;;233.73;72.53;;;;;;;;;;4991941;28;20541;-45
2024/02/24 12:20:50;;;;;;;237.40;75.85;;;;;;;;;;4992145;28;20192;-46
2024/02/24 12:23:16;;;;;;;234.60;76.30;;;;;;;;;;4991961;28;20180;-46
2024/02/24 12:25:45;;;;;;;239.63;79.25;;;;;;;;;;4991448;28;20423;-46
2024/02/24 12:28:11;;;;;;;237.65;77.10;;;;;;;;;;4991764;28;20174;-46
2024/02/24 12:30:39;;;;;;;240.50;79.60;;;;;;;;;;4991615;28;20354;-46
2024/02/24 12:33:06;;;;;;;242.60;82.72;;;;;;;;;;4991769;28;20412;-46
2024/02/24 12:35:32;;;;;;;241.27;78.97;;;;;;;;;;4991411;28;20211;-47
2024/02/24 12:37:58;;;;;;;237.32;74.57;;;;;;;;;;4991575;28;20177;-45
2024/02/24 12:40:31;;;;;;;238.48;76.00;;;;;;;;;;4991214;28;20208;-45
2024/02/24 12:42:57;;;;;;;238.32;76.50;;;;;;;;;;4991710;28;20182;-46
2024/02/24 12:45:23;;;;;;;236.65;77.65;;;;;;;;;;4991368;28;20266;-46
2024/02/24 12:47:50;;;;;;;240.75;80.28;;;;;;;;;;4991538;28;20280;-46
2024/02/24 12:50:35;;;;;;;238.73;75.70;;;;;;;;;;4990828;28;20296;-46
2024/02/24 12:53:05;;;;;;;239.10;78.68;;;;;;;;;;4983638;28;20293;-46
2024/02/24 12:55:31;;;;;;;238.02;75.47;;;;;;;;;;4990500;28;20640;-46
2024/02/24 12:57:56;;;;;;;235.67;73.60;;;;;;;;;;4991288;28;20265;-45
2024/02/24 13:00:23;;;;;;;233.90;70.67;;;;;;;;;;4991336;28;20438;-46
2024/02/24 13:02:49;;;;;;;237.27;73.43;;;;;;;;;;4991161;28;20412;-45
2024/02/24 13:05:15;;;;;;;238.77;76.77;;;;;;;;;;4990793;28;20195;-45
2024/02/24 13:07:41;;;;;;;236.67;76.83;;;;;;;;;;4990676;28;20468;-46
2024/02/24 13:10:07;;;;;;;236.07;75.90;;;;;;;;;;4995239;28;20443;-45
2024/02/24 13:12:33;;;;;;;236.82;76.53;;;;;;;;;;4995695;28;20528;-46
2024/02/24 13:14:59;;;;;;;237.33;76.13;;;;;;;;;;4995094;28;20743;-45
2024/02/24 13:17:25;;;;;;;237.03;75.60;;;;;;;;;;4995670;28;20421;-46
2024/02/24 13:19:51;;;;;;;242.67;80.07;;;;;;;;;;4994920;28;20435;-46
2024/02/24 13:22:19;;;;;;;239.55;77.65;;;;;;;;;;4995332;28;20435;-46
2024/02/24 13:24:45;;;;;;;242.52;81.95;;;;;;;;;;4995056;28;20195;-46
2024/02/24 13:27:11;;;;;;;241.47;79.53;;;;;;;;;;4994789;28;20208;-47
2024/02/24 13:29:38;;;;;;;243.88;80.85;;;;;;;;;;4994906;28;20491;-46
2024/02/24 13:32:04;;;;;;;244.48;80.22;;;;;;;;;;4995030;28;20276;-46
2024/02/24 13:34:30;;;;;;;243.60;78.68;;;;;;;;;;4995008;28;20637;-46
2024/02/24 13:36:56;;;;;;;239.97;75.47;;;;;;;;;;4994785;28;20189;-46
2024/02/24 13:39:22;;;;;;;242.13;82.00;;;;;;;;;;4995147;28;20477;-46
2024/02/24 13:41:51;;;;;;;237.83;72.50;;;;;;;;;;4994632;28;20456;-45
2024/02/24 13:44:17;;;;;;;236.98;72.38;;;;;;;;;;4994935;28;20418;-46
2024/02/24 13:46:46;;;;;;;237.40;74.93;;;;;;;;;;4994386;28;20208;-45
2024/02/24 13:49:12;;;;;;;236.18;72.20;;;;;;;;;;4994502;28;20412;-45
2024/02/24 13:51:38;;;;;;;234.67;73.73;;;;;;;;;;4994407;28;20252;-45
2024/02/24 13:54:04;;;;;;;234.52;72.65;;;;;;;;;;4994529;28;20415;-46
2024/02/24 13:56:30;;;;;;;233.43;71.82;;;;;;;;;;4994457;28;20547;-45
2024/02/24 13:58:56;;;;;;;233.73;71.97;;;;;;;;;;4994816;28;20541;-45
2024/02/24 14:01:22;;;;;;;234.80;72.50;;;;;;;;;;4994465;28;20439;-45